Time;durP1;ratioP1;P1;durP2;ratioP2;P2;SDS_P1;SDS_P2;PMS_P1;PMS_P2;Temp;Humidity;BMP_temperature;BMP_pressure;BME280_temperature;BME280_humidity;BME280_pressure;Samples;Min_cycle;Max_cycle;Signal;HPM_P1;HPM_P2
2022/07/09 00:00:23;;;;;;;8.77;2.47;;;;;;;14.86;100.00;101386.64;5162273;57;1141670;-68
2022/07/09 00:05:30;;;;;;;4.73;2.57;;;;;;;14.81;100.00;101384.86;5162266;57;1141173;-67
2022/07/09 00:10:36;;;;;;;5.03;2.47;;;;;;;14.78;100.00;101375.30;5142131;57;1141430;-68
2022/07/09 00:15:42;;;;;;;6.67;2.90;;;;;;;14.78;100.00;101370.46;5077855;58;1141532;-68
2022/07/09 00:20:48;;;;;;;4.33;2.60;;;;;;;14.71;100.00;101354.61;5100800;57;1141143;-68
2022/07/09 00:25:54;;;;;;;6.70;2.70;;;;;;;14.66;100.00;101356.34;5142284;57;1141334;-68
2022/07/09 00:30:59;;;;;;;9.27;3.70;;;;;;;14.58;100.00;101357.91;5142197;57;1141356;-68
2022/07/09 00:36:06;;;;;;;10.87;3.20;;;;;;;14.51;100.00;101350.08;5179920;56;1141667;-68
2022/07/09 00:41:11;;;;;;;9.97;3.73;;;;;;;14.47;100.00;101341.48;5088964;57;1143354;-68
2022/07/09 00:46:20;;;;;;;7.50;3.43;;;;;;;14.45;100.00;101339.43;5161805;57;1141076;-68
2022/07/09 00:51:25;;;;;;;5.67;3.08;;;;;;;14.51;100.00;101335.44;5153559;57;1141232;-68
2022/07/09 00:56:32;;;;;;;8.13;4.00;;;;;;;14.56;100.00;101335.41;5089549;57;1141208;-68
2022/07/09 01:01:38;;;;;;;9.63;4.50;;;;;;;14.58;100.00;101334.80;4997787;59;1141177;-68
2022/07/09 01:06:44;;;;;;;6.33;3.60;;;;;;;14.59;100.00;101331.66;4955159;59;1141088;-68
2022/07/09 01:11:50;;;;;;;6.77;4.23;;;;;;;14.61;100.00;101336.38;5117472;57;1141078;-68
2022/07/09 01:17:02;;;;;;;9.23;4.03;;;;;;;14.61;100.00;101325.23;5211073;56;1141010;-69
2022/07/09 01:22:09;;;;;;;12.07;4.70;;;;;;;14.67;100.00;101315.88;5162620;56;1141214;-68
2022/07/09 01:27:15;;;;;;;5.40;2.70;;;;;;;14.64;100.00;101316.16;5163149;57;1143241;-68
2022/07/09 01:32:21;;;;;;;4.53;2.97;;;;;;;14.62;100.00;101309.62;5078888;58;1141178;-68
2022/07/09 01:37:26;;;;;;;5.13;2.30;;;;;;;14.55;100.00;101305.77;5079083;58;1141173;-68
2022/07/09 01:42:32;;;;;;;9.63;2.40;;;;;;;14.52;100.00;101311.33;4997893;58;1141297;-68
2022/07/09 01:47:38;;;;;;;2.37;2.10;;;;;;;14.41;100.00;101305.55;5079122;58;1139284;-68
2022/07/09 01:52:44;;;;;;;6.70;2.10;;;;;;;14.33;100.00;101291.16;4968884;59;1139235;-68
2022/07/09 01:57:49;;;;;;;6.70;2.63;;;;;;;14.18;100.00;101293.25;4997264;59;1139045;-68
2022/07/09 02:02:56;;;;;;;1.60;1.50;;;;;;;14.18;100.00;101293.25;5163060;57;1139012;-68
2022/07/09 02:08:02;;;;;;;4.17;2.23;;;;;;;14.10;100.00;101293.00;5153240;57;1139755;-67
2022/07/09 02:13:07;;;;;;;5.37;2.33;;;;;;;14.05;100.00;101284.56;5115208;57;1139338;-68
2022/07/09 02:18:14;;;;;;;5.70;2.20;;;;;;;13.97;100.00;101285.64;5151729;57;1139127;-68
2022/07/09 02:23:20;;;;;;;5.37;2.30;;;;;;;13.89;100.00;101282.76;5151688;57;1139366;-68
2022/07/09 02:28:26;;;;;;;4.45;1.90;;;;;;;13.80;100.00;101270.17;5126833;57;1139133;-68
2022/07/09 02:33:31;;;;;;;3.00;2.37;;;;;;;13.83;100.00;101276.58;5163758;57;1138824;-68
2022/07/09 02:38:38;;;;;;;6.93;2.70;;;;;;;13.83;100.00;101273.92;5163271;57;1139294;-68
2022/07/09 02:43:44;;;;;;;3.77;2.30;;;;;;;13.83;100.00;101265.95;5163679;57;1139311;-67
2022/07/09 02:48:50;;;;;;;4.77;2.20;;;;;;;13.83;100.00;101260.15;5163546;57;1139046;-68
2022/07/09 02:53:56;;;;;;;3.30;2.20;;;;;;;13.85;100.00;101264.86;5109811;57;1139076;-68
2022/07/09 02:59:02;;;;;;;3.60;2.07;;;;;;;13.89;100.00;101267.65;5115026;57;1139039;-67
2022/07/09 03:04:08;;;;;;;6.55;2.50;;;;;;;13.92;100.00;101273.18;5134758;57;1139017;-68
2022/07/09 03:09:14;;;;;;;4.07;2.13;;;;;;;13.96;100.00;101255.53;5155885;57;1139163;-68
2022/07/09 03:14:20;;;;;;;12.00;2.30;;;;;;;14.05;100.00;101262.77;5084064;57;1139725;-68
2022/07/09 03:19:26;;;;;;;8.80;2.30;;;;;;;14.11;100.00;101262.77;5157739;56;1139539;-68
2022/07/09 03:24:31;;;;;;;3.90;2.50;;;;;;;14.16;100.00;101269.06;5193183;56;1137204;-68
2022/07/09 03:29:37;;;;;;;4.30;1.77;;;;;;;14.16;100.00;101267.73;5207432;56;21162;-68
2022/07/09 03:34:43;;;;;;;5.50;1.97;;;;;;;14.18;100.00;101267.97;5190806;56;1137079;-68
2022/07/09 03:39:49;;;;;;;4.50;2.50;;;;;;;14.17;100.00;101268.09;5207164;56;1141191;-68
2022/07/09 03:44:55;;;;;;;8.73;2.10;;;;;;;14.18;100.00;101253.82;5202817;56;1141252;-68
2022/07/09 03:50:01;;;;;;;6.35;1.72;;;;;;;14.17;100.00;101248.14;5188272;56;1141094;-68
2022/07/09 03:55:07;;;;;;;3.07;1.90;;;;;;;14.18;100.00;101256.00;5203859;56;1141275;-68
2022/07/09 04:00:14;;;;;;;4.30;2.43;;;;;;;14.17;100.00;101248.98;5214676;56;1141068;-69
2022/07/09 04:05:20;;;;;;;3.20;2.67;;;;;;;14.17;100.00;101246.81;5182290;56;1141086;-67
2022/07/09 04:10:26;;;;;;;7.70;2.87;;;;;;;14.16;100.00;101252.61;5120540;56;1141177;-68
2022/07/09 04:15:32;;;;;;;2.80;2.60;;;;;;;14.16;100.00;101238.47;5090263;57;1141361;-68
2022/07/09 04:20:38;;;;;;;4.93;2.17;;;;;;;14.18;100.00;101248.02;5159266;57;1141061;-68
2022/07/09 04:25:45;;;;;;;8.87;2.40;;;;;;;14.23;100.00;101236.50;5143244;57;1141069;-68
2022/07/09 04:30:51;;;;;;;3.47;2.33;;;;;;;14.28;100.00;101236.13;5136115;57;1141087;-68
2022/07/09 04:35:57;;;;;;;3.53;2.30;;;;;;;14.28;100.00;101240.97;5200909;56;1141477;-68
2022/07/09 04:41:03;;;;;;;5.70;1.73;;;;;;;14.28;100.00;101238.30;5204496;56;1141093;-67
2022/07/09 04:46:10;;;;;;;6.03;2.33;;;;;;;14.31;100.00;101231.41;5137461;57;1141186;-68
2022/07/09 04:51:16;;;;;;;5.17;2.40;;;;;;;14.31;100.00;101222.09;5143255;56;1141159;-68
2022/07/09 04:56:21;;;;;;;5.43;2.23;;;;;;;14.33;100.00;101231.28;5173673;56;1141254;-68
2022/07/09 05:01:29;;;;;;;5.50;1.97;;;;;;;14.31;100.00;101228.75;5056270;57;1141103;-67
2022/07/09 05:06:35;;;;;;;8.87;2.27;;;;;;;14.36;100.00;101235.03;5083091;57;1141106;-68
2022/07/09 05:11:40;;;;;;;3.40;2.00;;;;;;;14.40;100.00;101232.48;5114353;56;1141265;-68
2022/07/09 05:16:46;;;;;;;4.83;2.43;;;;;;;14.42;100.00;101239.86;5114995;57;1141110;-68
2022/07/09 05:21:52;;;;;;;3.63;2.40;;;;;;;14.41;100.00;101239.02;5058092;57;1141127;-68
2022/07/09 05:26:58;;;;;;;7.67;2.33;;;;;;;14.55;100.00;101236.55;5059863;58;1141136;-67
2022/07/09 05:32:05;;;;;;;5.47;2.23;;;;;;;14.71;100.00;101230.30;5030749;57;1141091;-68
2022/07/09 05:37:11;;;;;;;6.57;2.57;;;;;;;14.84;100.00;101230.61;5062372;58;1141179;-67
2022/07/09 05:42:16;;;;;;;12.57;2.00;;;;;;;14.90;100.00;101228.28;5114411;57;1141073;-68
2022/07/09 05:47:22;;;;;;;5.27;1.90;;;;;;;14.97;100.00;101234.77;5145837;57;1143255;-68
2022/07/09 05:52:27;;;;;;;6.93;2.20;;;;;;;15.00;100.00;101234.52;5126568;57;1141229;-67
2022/07/09 05:57:33;;;;;;;5.03;2.08;;;;;;;15.01;100.00;101236.20;5101965;57;1141364;-68
2022/07/09 06:02:39;;;;;;;6.77;2.23;;;;;;;15.05;100.00;101235.46;5068846;57;1141297;-68
2022/07/09 06:07:45;;;;;;;4.07;2.30;;;;;;;15.07;100.00;101222.38;5084730;57;1141002;-68
2022/07/09 06:12:51;;;;;;;8.37;2.10;;;;;;;14.99;100.00;101208.84;5113352;57;1141291;-68
2022/07/09 06:17:56;;;;;;;6.13;1.90;;;;;;;15.05;100.00;101216.33;5040781;58;1141113;-68
2022/07/09 06:23:02;;;;;;;11.37;2.43;;;;;;;15.11;100.00;101207.83;5074139;58;1141066;-68
2022/07/09 06:28:08;;;;;;;3.27;2.20;;;;;;;15.16;100.00;101204.74;5074408;58;1143221;-68
2022/07/09 06:33:14;;;;;;;7.67;1.93;;;;;;;15.32;100.00;101205.11;5074634;58;1141153;-68
2022/07/09 06:38:19;;;;;;;4.80;1.90;;;;;;;15.44;100.00;101205.86;5074149;58;1141065;-68
2022/07/09 06:43:25;;;;;;;5.10;1.90;;;;;;;15.55;100.00;101209.82;5074417;57;1141119;-68
2022/07/09 06:48:32;;;;;;;3.93;1.67;;;;;;;15.59;100.00;101205.04;5074731;57;1141152;-68
2022/07/09 06:53:38;;;;;;;2.57;1.33;;;;;;;15.61;100.00;101204.42;5075059;57;1141153;-68
2022/07/09 06:58:43;;;;;;;6.67;1.73;;;;;;;15.64;100.00;101210.34;5158820;56;1139107;-68
2022/07/09 07:03:49;;;;;;;11.13;2.27;;;;;;;15.80;99.98;101201.83;5158848;56;1139042;-68
2022/07/09 07:08:55;;;;;;;6.03;2.77;;;;;;;16.02;99.13;101188.27;5111019;56;1139071;-68
2022/07/09 07:14:00;;;;;;;9.27;2.40;;;;;;;16.21;98.58;101187.92;5149521;56;1136911;-68
2022/07/09 07:19:06;;;;;;;10.47;1.90;;;;;;;16.51;98.29;101180.62;5223097;56;1136900;-68
2022/07/09 07:24:13;;;;;;;8.65;2.90;;;;;;;16.66;96.70;101173.06;5158614;57;1139122;-68
2022/07/09 07:29:18;;;;;;;5.20;2.00;;;;;;;16.62;95.87;101189.01;5158849;57;1136966;-68
2022/07/09 07:34:24;;;;;;;5.90;1.87;;;;;;;16.71;92.52;101184.66;5158845;57;1137234;-68
2022/07/09 07:39:29;;;;;;;4.67;1.67;;;;;;;16.93;92.12;101184.36;5158599;57;1136863;-68
2022/07/09 07:44:35;;;;;;;9.43;2.27;;;;;;;17.07;93.01;101180.38;5158581;57;1136991;-68
2022/07/09 07:49:41;;;;;;;6.60;1.90;;;;;;;17.22;90.30;101189.63;5158979;57;1136921;-68
2022/07/09 07:54:47;;;;;;;6.17;1.60;;;;;;;17.02;88.04;101191.50;5067925;57;1137035;-69
2022/07/09 07:59:53;;;;;;;5.43;1.80;;;;;;;17.13;89.06;101193.16;4993665;59;1136988;-68
2022/07/09 08:04:59;;;;;;;9.83;1.80;;;;;;;17.12;86.70;101187.45;5059653;57;1137052;-68
2022/07/09 08:10:05;;;;;;;4.23;1.33;;;;;;;17.02;86.75;101195.51;5204987;56;1136895;-68
2022/07/09 08:15:11;;;;;;;9.10;2.17;;;;;;;17.30;88.82;101190.22;5226031;56;1136950;-68
2022/07/09 08:20:17;;;;;;;4.00;1.47;;;;;;;17.53;86.60;101187.05;5230378;56;1136862;-69
2022/07/09 08:25:23;;;;;;;8.67;1.43;;;;;;;17.41;86.46;101187.39;5204740;56;1137058;-68
2022/07/09 08:30:28;;;;;;;5.93;2.27;;;;;;;17.52;85.14;101185.36;5201160;56;1134911;-68
2022/07/09 08:35:34;;;;;;;6.37;1.93;;;;;;;17.59;86.70;101184.25;5126416;57;1134817;-68
2022/07/09 08:40:41;;;;;;;8.40;1.73;;;;;;;17.46;85.41;101177.91;5148821;57;21159;-68
2022/07/09 08:45:48;;;;;;;5.50;1.77;;;;;;;17.47;85.41;101170.73;5129185;57;1134842;-68
2022/07/09 08:50:54;;;;;;;3.73;1.57;;;;;;;17.52;84.26;101172.48;5131841;56;1139176;-68
2022/07/09 08:56:00;;;;;;;5.80;1.40;;;;;;;17.51;83.71;101179.66;5099322;57;1139164;-69
2022/07/09 09:01:07;;;;;;;5.90;1.67;;;;;;;17.46;80.52;101175.23;5130287;56;1139083;-69
2022/07/09 09:06:14;;;;;;;6.27;1.50;;;;;;;17.44;82.02;101171.87;5162635;57;1138992;-69
2022/07/09 09:11:28;;;;;;;7.00;2.37;;;;;;;17.52;81.60;101165.30;5162928;57;1139066;-68
2022/07/09 09:16:38;;;;;;;6.33;2.50;;;;;;;17.55;82.56;101182.89;5159393;57;1138939;-69
2022/07/09 09:21:44;;;;;;;8.83;1.83;;;;;;;17.64;82.42;101175.83;5075694;57;1138883;-68
2022/07/09 09:26:50;;;;;;;4.53;1.40;;;;;;;17.59;81.54;101177.56;5075590;57;1139099;-68
2022/07/09 09:31:56;;;;;;;7.37;1.70;;;;;;;17.46;80.49;101177.91;5161792;57;1139079;-69
2022/07/09 09:37:02;;;;;;;7.53;1.73;;;;;;;17.37;80.14;101181.48;5181817;56;1139046;-69
2022/07/09 09:42:13;;;;;;;3.77;1.90;;;;;;;17.47;80.26;101172.91;5162857;57;1138964;-69
2022/07/09 09:47:27;;;;;;;5.27;1.67;;;;;;;17.54;78.23;101174.52;5102759;57;1139187;-68
2022/07/09 09:52:29;;;;;;;3.13;1.60;;;;;;;17.57;80.51;101166.17;5083796;57;1139025;-69
2022/07/09 09:57:38;;;;;;;4.67;1.60;;;;;;;17.74;81.14;101163.23;5155461;57;1139327;-68
2022/07/09 10:02:50;;;;;;;8.03;1.40;;;;;;;17.97;77.58;101148.95;5162038;57;1138933;-69
2022/07/09 10:07:55;;;;;;;6.20;1.83;;;;;;;18.12;76.04;101156.80;5162960;57;1139296;-68
2022/07/09 10:13:01;;;;;;;7.20;1.57;;;;;;;18.20;77.95;101159.05;5162807;57;1139455;-69
2022/07/09 10:18:13;;;;;;;4.33;1.67;;;;;;;18.23;76.44;101154.73;5079321;58;1139540;-69
2022/07/09 10:23:26;;;;;;;6.67;2.67;;;;;;;18.30;75.71;101152.30;5078860;58;1139149;-69
2022/07/09 10:28:38;;;;;;;14.37;2.20;;;;;;;18.33;74.74;101158.69;5078923;58;1139080;-68
2022/07/09 10:33:51;;;;;;;5.67;2.37;;;;;;;18.21;76.27;101159.39;5079138;58;1141142;-68
2022/07/09 10:38:57;;;;;;;3.23;1.57;;;;;;;18.20;76.60;101156.37;5079878;58;1139084;-68
2022/07/09 10:44:02;;;;;;;8.50;1.97;;;;;;;18.15;74.64;101149.81;5072423;58;1139098;-68
2022/07/09 10:49:08;;;;;;;6.03;2.80;;;;;;;18.14;75.99;101148.13;5068426;58;1139035;-69
2022/07/09 10:54:18;;;;;;;6.37;1.90;;;;;;;18.23;76.38;101149.88;5019923;58;1139125;-68
2022/07/09 10:59:27;;;;;;;3.80;1.92;;;;;;;18.39;74.76;101151.86;5070971;57;1139079;-69
2022/07/09 11:04:34;;;;;;;4.73;1.40;;;;;;;18.43;74.62;101143.37;5125378;57;1136982;-69
2022/07/09 11:09:40;;;;;;;6.47;1.83;;;;;;;18.50;73.75;101134.20;5132250;56;1137211;-68
2022/07/09 11:14:49;;;;;;;5.10;1.63;;;;;;;18.60;73.59;101140.36;5206297;56;1136964;-68
2022/07/09 11:19:55;;;;;;;6.70;1.85;;;;;;;18.60;74.42;101118.42;5217089;56;1137245;-68
2022/07/09 11:25:01;;;;;;;3.08;1.70;;;;;;;18.81;73.78;101138.14;5217309;56;1137197;-68
2022/07/09 11:30:07;;;;;;;5.17;1.70;;;;;;;18.81;73.08;101130.61;5217162;56;1136921;-68
2022/07/09 11:35:26;;;;;;;2.25;1.52;;;;;;;18.89;74.50;101126.16;5212710;56;1137007;-68
2022/07/09 11:40:32;;;;;;;5.80;1.70;;;;;;;19.26;74.47;101118.30;5216637;56;1137320;-68
2022/07/09 11:45:39;;;;;;;2.92;1.10;;;;;;;19.68;72.30;101110.29;5216890;56;1137087;-69
2022/07/09 11:50:46;;;;;;;2.30;1.60;;;;;;;19.82;70.34;101108.31;5216882;56;1136943;-68
2022/07/09 11:56:08;;;;;;;7.45;1.22;;;;;;;19.98;70.62;101097.60;5158358;56;1137249;-68
2022/07/09 12:01:13;;;;;;;3.98;1.40;;;;;;;20.29;69.63;101088.89;5163980;57;1137143;-68
2022/07/09 12:06:19;;;;;;;3.47;1.00;;;;;;;20.66;68.86;101086.52;5129350;57;1134876;-69
2022/07/09 12:11:30;;;;;;;2.30;1.15;;;;;;;20.83;66.60;101079.77;5126990;57;1139124;-69
2022/07/09 12:16:36;;;;;;;4.47;1.00;;;;;;;20.65;67.01;101066.53;5131277;57;1145034;-68
2022/07/09 12:21:42;;;;;;;1.83;1.03;;;;;;;20.52;66.69;101064.37;5134242;56;1138964;-68
2022/07/09 12:26:47;;;;;;;1.65;0.85;;;;;;;20.68;68.82;101050.06;5101487;57;1139037;-68
2022/07/09 12:31:53;;;;;;;1.77;1.10;;;;;;;21.16;68.54;101050.92;5101360;57;1139034;-69
2022/07/09 12:36:58;;;;;;;1.98;1.42;;;;;;;21.37;65.90;101049.85;5101501;57;1139029;-69
2022/07/09 12:42:05;;;;;;;3.60;1.00;;;;;;;21.21;65.58;101044.05;5101426;57;1139253;-68
2022/07/09 12:47:11;;;;;;;7.70;1.77;;;;;;;21.17;66.10;101035.95;5047220;58;1139050;-68
2022/07/09 12:52:17;;;;;;;1.80;0.90;;;;;;;21.11;67.56;101031.77;5088263;57;1138947;-69
2022/07/09 12:57:23;;;;;;;2.90;1.20;;;;;;;21.43;67.37;101011.45;5149724;57;1139048;-69
2022/07/09 13:02:29;;;;;;;0.90;0.90;;;;;;;21.63;66.63;101012.67;5149053;57;1139000;-69
2022/07/09 13:07:35;;;;;;;0.88;0.88;;;;;;;21.96;63.57;100995.77;5155986;57;1138996;-69
2022/07/09 13:12:41;;;;;;;6.45;1.00;;;;;;;22.25;62.45;100986.94;5150705;57;1139031;-68
2022/07/09 13:17:48;;;;;;;3.98;1.10;;;;;;;22.06;63.04;100984.25;5140502;57;1138970;-69
2022/07/09 13:22:53;;;;;;;7.10;1.12;;;;;;;22.09;63.45;100976.31;5078101;57;1139066;-69
2022/07/09 13:27:59;;;;;;;1.82;1.15;;;;;;;22.18;62.90;100960.89;5076067;57;1139067;-69
2022/07/09 13:33:05;;;;;;;2.75;1.35;;;;;;;22.02;62.81;100954.65;5077832;58;1138972;-69
2022/07/09 13:38:11;;;;;;;1.00;0.90;;;;;;;22.17;60.09;100957.36;5093879;57;1139272;-69
2022/07/09 13:43:17;;;;;;;4.87;0.88;;;;;;;22.07;62.15;100952.25;5157652;56;1139169;-69
2022/07/09 13:48:23;;;;;;;13.08;1.32;;;;;;;22.03;62.00;100950.94;5165108;56;1139077;-69
2022/07/09 13:53:29;;;;;;;6.17;1.25;;;;;;;;;;5159438;57;1141276;-69
2022/07/09 13:58:35;;;;;;;2.15;0.93;;;;;;;21.93;62.59;100935.52;5165306;56;818294;-69
2022/07/09 14:03:41;;;;;;;3.70;1.00;;;;;;;21.69;61.79;100923.64;5159043;56;1137121;-71
2022/07/09 14:08:47;;;;;;;4.75;0.95;;;;;;;21.55;63.47;100925.74;5160423;56;1139062;-69
2022/07/09 14:13:53;;;;;;;0.90;0.80;;;;;;;21.75;63.45;100915.65;5177371;56;1139263;-68
2022/07/09 14:18:59;;;;;;;4.20;1.07;;;;;;;21.78;64.73;100906.89;5160068;57;1139030;-68
2022/07/09 14:24:06;;;;;;;2.27;1.07;;;;;;;21.94;63.95;100908.92;5160088;57;1139250;-67
2022/07/09 14:29:15;;;;;;;0.75;0.72;;;;;;;21.75;63.40;100899.50;5159944;57;1138973;-68
2022/07/09 14:34:21;;;;;;;0.98;0.82;;;;;;;21.83;63.82;100891.87;5158328;57;1139056;-68
2022/07/09 14:39:27;;;;;;;10.50;1.40;;;;;;;21.83;63.82;100891.87;5160068;57;1139081;-68
2022/07/09 14:44:33;;;;;;;0.90;0.80;;;;;;;21.65;65.35;100885.47;5161420;56;1140777;-68
2022/07/09 14:49:39;;;;;;;4.10;0.60;;;;;;;21.70;65.58;100892.47;5116354;57;1139311;-68
2022/07/09 14:54:45;;;;;;;3.95;0.60;;;;;;;21.58;65.46;100887.70;5121266;57;1139143;-68
2022/07/09 14:59:51;;;;;;;2.15;0.60;;;;;;;21.64;63.56;100880.27;5078288;58;1139027;-69
2022/07/09 15:04:56;;;;;;;0.50;0.50;;;;;;;21.57;65.01;100895.45;5078423;57;1139078;-69
